createdAt,value
2023-05-22T00:03:05.767Z,15.33
2023-05-22T00:08:11.796Z,15.60
2023-05-22T00:13:13.635Z,15.71
2023-05-22T00:18:15.326Z,15.55
2023-05-22T00:23:17.296Z,15.41
2023-05-22T00:28:19.188Z,15.25
2023-05-22T00:33:20.991Z,15.36
2023-05-22T00:38:34.255Z,15.49
2023-05-22T00:43:36.224Z,15.38
2023-05-22T00:48:38.226Z,15.17
2023-05-22T00:53:40.599Z,14.76
2023-05-22T00:58:42.790Z,14.77
2023-05-22T01:03:45.964Z,15.03
2023-05-22T01:08:48.107Z,14.94
2023-05-22T01:14:14.717Z,14.84
2023-05-22T01:19:47.555Z,14.61
2023-05-22T01:25:18.907Z,14.62
2023-05-22T01:30:47.936Z,14.32
2023-05-22T01:35:56.079Z,14.27
2023-05-22T01:40:58.411Z,14.38
2023-05-22T01:46:01.882Z,14.27
2023-05-22T01:51:12.028Z,14.69
2023-05-22T01:56:18.193Z,14.52
2023-05-22T02:01:21.733Z,14.25
2023-05-22T02:06:26.110Z,14.42
2023-05-22T02:11:30.567Z,14.26
2023-05-22T02:16:32.370Z,14.25
2023-05-22T02:21:35.418Z,14.20
2023-05-22T02:26:37.752Z,14.13
2023-05-22T02:31:39.665Z,14.17
2023-05-22T02:36:41.378Z,14.07
2023-05-22T02:41:43.261Z,13.90
2023-05-22T02:46:45.787Z,13.75
2023-05-22T02:51:47.851Z,13.73
2023-05-22T02:56:49.843Z,13.76
2023-05-22T03:01:51.628Z,13.56
2023-05-22T03:06:53.402Z,13.50
2023-05-22T03:11:55.343Z,13.58
2023-05-22T03:16:58.930Z,13.80
2023-05-22T03:22:01.173Z,13.77
2023-05-22T03:27:04.480Z,13.59
2023-05-22T03:32:13.889Z,13.65
2023-05-22T03:37:15.639Z,13.76
2023-05-22T03:42:17.393Z,13.74
2023-05-22T03:47:19.900Z,13.84
2023-05-22T03:52:22.137Z,13.87
2023-05-22T03:57:23.870Z,13.98
2023-05-22T04:02:26.415Z,14.04
2023-05-22T04:07:32.676Z,14.23
2023-05-22T04:12:34.517Z,14.39
2023-05-22T04:17:41.506Z,14.50
2023-05-22T04:22:45.891Z,14.76
2023-05-22T04:27:50.758Z,14.84
2023-05-22T04:32:52.503Z,14.89
2023-05-22T04:37:54.257Z,15.01
2023-05-22T04:42:59.748Z,15.20
2023-05-22T04:48:02.603Z,15.49
2023-05-22T04:53:08.075Z,15.45
2023-05-22T04:58:10.355Z,15.53
2023-05-22T05:03:12.319Z,15.70
2023-05-22T05:08:14.272Z,15.96
2023-05-22T05:13:16.037Z,16.25
2023-05-22T05:18:20.890Z,16.39
2023-05-22T05:23:23.160Z,16.42
2023-05-22T05:28:26.247Z,16.68
2023-05-22T05:33:29.517Z,17.01
2023-05-22T05:38:39.594Z,17.08
2023-05-22T05:43:42.088Z,17.32
2023-05-22T05:48:45.346Z,17.86
2023-05-22T05:53:47.620Z,17.80
2023-05-22T05:58:49.732Z,18.08
2023-05-22T06:04:09.008Z,18.38
2023-05-22T06:09:12.769Z,18.96
2023-05-22T06:14:33.436Z,19.03
2023-05-22T06:19:35.756Z,19.61
2023-05-22T06:24:37.746Z,20.13
2023-05-22T06:29:46.151Z,20.44
2023-05-22T06:34:49.654Z,20.76
2023-05-22T06:39:54.622Z,21.14
2023-05-22T06:45:19.953Z,21.02
2023-05-22T06:50:42.068Z,21.39
2023-05-22T06:55:43.839Z,21.68
2023-05-22T07:00:52.052Z,21.92
2023-05-22T07:05:59.622Z,22.69
2023-05-22T07:11:02.216Z,23.08
2023-05-22T07:16:04.535Z,23.29
2023-05-22T07:21:06.849Z,23.67
2023-05-22T07:26:09.831Z,23.91
2023-05-22T07:31:17.357Z,24.06
2023-05-22T07:36:21.089Z,24.45
2023-05-22T07:41:24.196Z,24.29
2023-05-22T07:46:26.196Z,24.51
2023-05-22T07:51:44.919Z,24.37
2023-05-22T07:56:47.746Z,24.55
2023-05-22T08:01:51.907Z,24.27
2023-05-22T08:06:53.674Z,24.29
2023-05-22T08:11:55.363Z,24.43
2023-05-22T08:16:59.082Z,24.67
2023-05-22T08:22:01.117Z,25.11
2023-05-22T08:27:04.838Z,25.13
2023-05-22T08:32:06.878Z,25.61
2023-05-22T08:37:09.476Z,26.06
2023-05-22T08:42:11.240Z,25.92
2023-05-22T08:47:14.123Z,26.09
2023-05-22T08:52:41.460Z,26.06
2023-05-22T08:57:43.340Z,26.00
2023-05-22T09:02:46.633Z,26.35
2023-05-22T09:07:49.035Z,26.57
2023-05-22T09:13:08.992Z,27.39
2023-05-22T09:18:14.336Z,27.86
2023-05-22T09:23:18.011Z,27.82
2023-05-22T09:28:20.517Z,28.41
2023-05-22T09:33:23.263Z,28.35
2023-05-22T09:38:29.881Z,27.81
2023-05-22T09:43:33.728Z,27.79
2023-05-22T09:48:38.409Z,28.23
2023-05-22T09:53:43.291Z,27.56
2023-05-22T09:58:46.806Z,27.51
2023-05-22T10:03:52.914Z,27.56
2023-05-22T10:09:01.815Z,27.52
2023-05-22T10:14:05.125Z,27.81
2023-05-22T10:19:08.345Z,27.70
2023-05-22T10:24:10.272Z,27.58
2023-05-22T10:29:15.624Z,27.74
2023-05-22T10:34:54.103Z,27.57
2023-05-22T10:40:08.969Z,27.56
2023-05-22T10:45:11.064Z,27.34
2023-05-22T10:50:13.165Z,27.26
2023-05-22T10:55:14.952Z,26.85
2023-05-22T11:00:18.742Z,26.78
2023-05-22T11:05:25.888Z,27.35
2023-05-22T11:10:47.859Z,28.11
2023-05-22T11:15:49.630Z,28.30
2023-05-22T11:20:53.972Z,29.04
2023-05-22T11:25:55.697Z,28.97
2023-05-22T11:30:57.680Z,29.16
2023-05-22T11:36:01.971Z,28.82
2023-05-22T11:41:03.719Z,28.58
2023-05-22T11:46:10.495Z,28.43
2023-05-22T11:51:12.651Z,28.33
2023-05-22T11:56:14.534Z,28.57
2023-05-22T12:01:16.460Z,28.88
2023-05-22T12:06:18.703Z,28.17
2023-05-22T12:11:21.651Z,28.08
2023-05-22T12:16:23.865Z,28.35
2023-05-22T12:21:27.130Z,28.60
2023-05-22T12:26:28.824Z,28.70
2023-05-22T12:31:37.565Z,28.58
2023-05-22T12:36:41.170Z,28.26
2023-05-22T12:41:43.943Z,28.41
2023-05-22T12:46:46.316Z,28.73
2023-05-22T12:51:55.861Z,28.66
2023-05-22T12:56:57.976Z,28.72
2023-05-22T13:02:04.198Z,28.50
2023-05-22T13:07:06.191Z,28.52
2023-05-22T13:12:10.310Z,28.45
2023-05-22T13:17:12.420Z,28.52
2023-05-22T13:22:15.652Z,28.15
2023-05-22T13:27:18.874Z,28.55
2023-05-22T13:32:21.115Z,28.67
2023-05-22T13:37:23.404Z,28.58
2023-05-22T13:42:25.442Z,28.37
2023-05-22T13:47:27.444Z,28.49
2023-05-22T13:52:29.406Z,28.19
2023-05-22T13:57:31.504Z,27.97
2023-05-22T14:02:33.388Z,27.85
2023-05-22T14:07:36.193Z,27.84
2023-05-22T14:12:38.002Z,27.88
2023-05-22T14:17:40.068Z,27.71
2023-05-22T14:22:56.067Z,27.83
2023-05-22T14:27:59.728Z,27.77
2023-05-22T14:33:01.608Z,27.99
2023-05-22T14:38:03.373Z,28.12
2023-05-22T14:43:05.160Z,28.28
2023-05-22T14:48:10.191Z,28.52
2023-05-22T14:53:13.078Z,28.18
2023-05-22T14:58:14.975Z,27.92
2023-05-22T15:03:19.026Z,28.12
2023-05-22T15:08:21.155Z,28.20
2023-05-22T15:13:22.899Z,28.33
2023-05-22T15:18:26.524Z,28.04
2023-05-22T15:23:28.615Z,28.52
2023-05-22T15:28:30.461Z,28.08
2023-05-22T15:33:34.013Z,27.74
2023-05-22T15:38:35.779Z,27.80
2023-05-22T15:43:38.089Z,27.59
2023-05-22T15:48:39.938Z,27.32
2023-05-22T15:53:44.495Z,26.76
2023-05-22T15:58:46.205Z,26.70
2023-05-22T16:03:48.026Z,26.28
2023-05-22T16:08:50.067Z,26.77
2023-05-22T16:13:51.853Z,26.33
2023-05-22T16:18:53.699Z,26.28
2023-05-22T16:23:55.708Z,25.91
2023-05-22T16:28:57.514Z,25.85
2023-05-22T16:33:59.233Z,25.72
2023-05-22T16:39:01.014Z,25.40
2023-05-22T16:44:03.084Z,24.91
2023-05-22T16:49:04.880Z,24.59
2023-05-22T16:54:06.642Z,24.48
2023-05-22T16:59:08.434Z,24.46
2023-05-22T17:04:14.382Z,24.28
2023-05-22T17:09:16.217Z,24.17
2023-05-22T17:14:17.934Z,24.14
2023-05-22T17:19:20.129Z,23.97
2023-05-22T17:24:22.025Z,23.98
2023-05-22T17:29:24.797Z,23.75
2023-05-22T17:34:28.250Z,23.70
2023-05-22T17:39:30.594Z,23.66
2023-05-22T17:44:32.375Z,23.51
2023-05-22T17:49:34.087Z,23.44
2023-05-22T17:54:35.884Z,23.32
2023-05-22T17:59:39.987Z,23.35
2023-05-22T18:04:42.220Z,23.27
2023-05-22T18:09:43.967Z,23.07
2023-05-22T18:14:46.778Z,23.08
2023-05-22T18:19:48.734Z,23.06
2023-05-22T18:24:50.676Z,22.89
2023-05-22T18:29:52.422Z,22.84
2023-05-22T18:34:54.418Z,22.79
2023-05-22T18:39:56.321Z,22.70
2023-05-22T18:44:58.814Z,22.55
2023-05-22T18:50:00.929Z,22.41
2023-05-22T18:55:02.813Z,22.29
2023-05-22T19:00:05.053Z,22.17
2023-05-22T19:05:07.475Z,22.17
2023-05-22T19:10:09.755Z,21.91
2023-05-22T19:15:11.708Z,21.72
2023-05-22T19:20:13.413Z,21.39
2023-05-22T19:25:15.168Z,21.59
2023-05-22T19:30:18.835Z,21.65
2023-05-22T19:35:20.760Z,21.47
2023-05-22T19:40:22.450Z,21.51
2023-05-22T19:45:25.981Z,21.38
2023-05-22T19:50:27.704Z,21.26
2023-05-22T19:55:30.580Z,21.03
2023-05-22T20:00:33.465Z,21.01
2023-05-22T20:05:35.177Z,21.02
2023-05-22T20:10:36.928Z,20.96
2023-05-22T20:15:41.099Z,20.84
2023-05-22T20:20:42.951Z,20.78
2023-05-22T20:25:44.760Z,20.73
2023-05-22T20:30:46.594Z,20.62
2023-05-22T20:35:48.862Z,20.54
2023-05-22T20:40:52.231Z,20.35
2023-05-22T20:45:54.180Z,20.27
2023-05-22T20:50:56.020Z,20.03
2023-05-22T20:55:58.026Z,20.15
2023-05-22T21:00:59.914Z,19.91
2023-05-22T21:06:01.745Z,19.70
2023-05-22T21:11:03.484Z,19.54
2023-05-22T21:16:05.717Z,19.49
2023-05-22T21:21:07.411Z,19.73
2023-05-22T21:26:09.352Z,19.48
2023-05-22T21:31:11.385Z,19.34
2023-05-22T21:36:13.020Z,19.31
2023-05-22T21:41:15.898Z,19.02
2023-05-22T21:46:17.730Z,18.74
2023-05-22T21:51:20.032Z,18.69
2023-05-22T21:56:21.948Z,19.11
2023-05-22T22:01:23.737Z,18.89
2023-05-22T22:06:25.461Z,18.97
2023-05-22T22:11:27.500Z,18.97
2023-05-22T22:16:29.219Z,18.64
2023-05-22T22:21:35.283Z,18.78
2023-05-22T22:26:36.967Z,18.67
2023-05-22T22:31:38.780Z,18.65
2023-05-22T22:36:40.499Z,18.33
2023-05-22T22:41:43.558Z,18.27
2023-05-22T22:46:45.799Z,18.61
2023-05-22T22:51:50.189Z,18.36
2023-05-22T22:56:52.117Z,18.31
2023-05-22T23:01:54.031Z,18.27
2023-05-22T23:06:57.560Z,18.43
2023-05-22T23:11:59.332Z,18.66
2023-05-22T23:17:02.713Z,18.51
2023-05-22T23:22:06.234Z,18.25
2023-05-22T23:27:07.910Z,18.11
2023-05-22T23:32:10.057Z,18.02
2023-05-22T23:37:12.633Z,18.11
2023-05-22T23:42:15.535Z,18.36
2023-05-22T23:47:18.688Z,18.47
2023-05-22T23:52:20.507Z,18.19
2023-05-22T23:57:22.213Z,18.23
